createdAt,value
2023-01-17T00:00:19.284Z,99579.91
2023-01-17T00:02:47.462Z,99579.13
2023-01-17T00:05:32.968Z,99583.19
2023-01-17T00:08:18.415Z,99581.16
2023-01-17T00:10:47.938Z,99572.06
2023-01-17T00:13:16.065Z,99568.06
2023-01-17T00:15:44.200Z,99578.41
2023-01-17T00:18:12.402Z,99571.19
2023-01-17T00:21:03.267Z,99570.88
2023-01-17T00:23:48.775Z,99563.31
2023-01-17T00:26:20.857Z,99570.38
2023-01-17T00:28:48.005Z,99559.50
2023-01-17T00:31:16.760Z,99564.47
2023-01-17T00:33:44.135Z,99567.34
2023-01-17T00:36:11.642Z,99570.72
2023-01-17T00:38:39.605Z,99583.28
2023-01-17T00:41:08.400Z,99580.47
2023-01-17T00:43:55.585Z,99571.78
2023-01-17T00:46:41.684Z,99576.88
2023-01-17T00:49:27.727Z,99573.84
2023-01-17T00:52:13.285Z,99562.41
2023-01-17T00:54:58.752Z,99561.13
2023-01-17T00:57:44.408Z,99567.84
2023-01-17T01:00:32.537Z,99576.75
2023-01-17T01:03:17.852Z,99576.75
2023-01-17T01:06:03.525Z,99567.78
2023-01-17T01:08:49.495Z,99556.19
2023-01-17T01:11:36.971Z,99557.13
2023-01-17T01:14:26.398Z,99554.72
2023-01-17T01:17:13.428Z,99552.09
2023-01-17T01:19:58.937Z,99543.91
2023-01-17T01:22:44.596Z,99546.34
2023-01-17T01:25:30.433Z,99536.06
2023-01-17T01:28:22.248Z,99539.22
2023-01-17T01:31:07.840Z,99529.34
2023-01-17T01:33:37.371Z,99523.84
2023-01-17T01:36:08.062Z,99522.69
2023-01-17T01:38:36.263Z,99511.41
2023-01-17T01:41:04.600Z,99515.00
2023-01-17T01:43:45.560Z,99516.16
2023-01-17T01:46:18.069Z,99507.84
2023-01-17T01:48:51.977Z,99507.91
2023-01-17T01:51:25.227Z,99516.13
2023-01-17T01:53:59.880Z,99517.41
2023-01-17T01:56:29.908Z,99472.00
2023-01-17T01:59:01.265Z,99495.50
2023-01-17T02:01:31.320Z,99500.66
2023-01-17T02:04:01.291Z,99492.41
2023-01-17T02:06:33.976Z,99490.53
2023-01-17T02:09:07.124Z,99484.25
2023-01-17T02:11:37.376Z,99484.88
2023-01-17T02:14:06.034Z,99478.59
2023-01-17T02:16:48.257Z,99462.75
2023-01-17T02:19:48.058Z,99479.84
2023-01-17T02:22:43.157Z,99484.41
2023-01-17T02:25:24.071Z,99477.94
2023-01-17T02:28:11.804Z,99459.56
2023-01-17T02:30:43.888Z,99473.47
2023-01-17T02:33:23.934Z,99474.22
2023-01-17T02:36:04.264Z,99473.56
2023-01-17T02:38:39.550Z,99478.41
2023-01-17T02:41:12.645Z,99462.06
2023-01-17T02:43:41.570Z,99457.19
2023-01-17T02:46:11.183Z,99450.28
2023-01-17T02:48:40.500Z,99436.00
2023-01-17T02:51:43.275Z,99426.09
2023-01-17T02:54:33.163Z,99424.69
2023-01-17T02:57:19.161Z,99434.22
2023-01-17T02:59:55.923Z,99440.94
2023-01-17T03:02:31.493Z,99445.66
2023-01-17T03:05:05.591Z,99447.69
2023-01-17T03:07:35.305Z,99456.84
2023-01-17T03:10:06.844Z,99462.19
2023-01-17T03:12:38.444Z,99451.25
2023-01-17T03:15:11.124Z,99447.16
2023-01-17T03:17:44.011Z,99447.16
2023-01-17T03:20:13.038Z,99444.59
2023-01-17T03:22:41.357Z,99436.63
2023-01-17T03:25:09.956Z,99445.72
2023-01-17T03:27:38.142Z,99442.59
2023-01-17T03:30:07.561Z,99440.25
2023-01-17T03:32:35.863Z,99436.19
2023-01-17T03:35:05.894Z,99438.25
2023-01-17T03:37:34.949Z,99436.66
2023-01-17T03:40:03.203Z,99433.38
2023-01-17T03:42:31.347Z,99441.63
2023-01-17T03:44:59.480Z,99437.28
2023-01-17T03:47:30.406Z,99438.56
2023-01-17T03:49:58.555Z,99436.50
2023-01-17T03:52:28.027Z,99439.59
2023-01-17T03:54:56.200Z,99446.44
2023-01-17T03:57:24.493Z,99435.06
2023-01-17T03:59:52.655Z,99436.19
2023-01-17T04:02:20.823Z,99437.19
2023-01-17T04:04:50.469Z,99426.13
2023-01-17T04:07:18.956Z,99430.81
2023-01-17T04:09:48.619Z,99431.78
2023-01-17T04:12:16.830Z,99436.47
2023-01-17T04:14:44.949Z,99445.09
2023-01-17T04:17:14.313Z,99429.91
2023-01-17T04:19:42.576Z,99439.31
2023-01-17T04:22:10.937Z,99436.66
2023-01-17T04:24:39.160Z,99441.34
2023-01-17T04:27:11.080Z,99436.66
2023-01-17T04:29:39.478Z,99437.72
2023-01-17T04:32:07.760Z,99456.19
2023-01-17T04:34:35.915Z,99459.50
2023-01-17T04:37:04.108Z,99458.56
2023-01-17T04:39:32.266Z,99452.91
2023-01-17T04:42:00.417Z,99454.13
2023-01-17T04:44:30.011Z,99450.78
2023-01-17T04:46:58.128Z,99453.28
2023-01-17T04:49:26.269Z,99447.50
2023-01-17T04:51:54.474Z,99452.63
2023-01-17T04:54:22.609Z,99447.28
2023-01-17T04:56:51.036Z,99457.31
2023-01-17T04:59:19.214Z,99467.06
2023-01-17T05:01:49.539Z,99468.00
2023-01-17T05:04:18.027Z,99471.75
2023-01-17T05:06:46.140Z,99467.53
2023-01-17T05:09:14.257Z,99464.53
2023-01-17T05:11:42.375Z,99476.00
2023-01-17T05:14:11.010Z,99451.06
2023-01-17T05:16:39.177Z,99468.41
2023-01-17T05:19:08.716Z,99469.19
2023-01-17T05:21:36.904Z,99471.50
2023-01-17T05:24:05.547Z,99474.66
2023-01-17T05:26:33.755Z,99477.66
2023-01-17T05:29:01.964Z,99477.28
2023-01-17T05:31:30.267Z,99469.41
2023-01-17T05:33:58.460Z,99479.56
2023-01-17T05:36:28.439Z,99483.66
2023-01-17T05:38:56.675Z,99475.34
2023-01-17T05:41:24.815Z,99486.22
2023-01-17T05:43:52.944Z,99496.38
2023-01-17T05:46:21.094Z,99495.81
2023-01-17T05:48:49.230Z,99491.66
2023-01-17T05:51:17.329Z,99496.38
2023-01-17T05:53:47.022Z,99496.06
2023-01-17T05:56:15.190Z,99497.50
2023-01-17T05:58:43.320Z,99489.25
2023-01-17T06:01:11.433Z,99506.25
2023-01-17T06:03:40.335Z,99516.47
2023-01-17T06:06:08.800Z,99514.59
2023-01-17T06:08:37.128Z,99515.22
2023-01-17T06:11:07.967Z,99512.91
2023-01-17T06:13:36.137Z,99516.84
2023-01-17T06:16:04.523Z,99508.09
2023-01-17T06:18:33.276Z,99515.63
2023-01-17T06:21:03.580Z,99509.84
2023-01-17T06:23:31.758Z,99504.50
2023-01-17T06:26:04.764Z,99503.38
2023-01-17T06:28:34.414Z,99508.59
2023-01-17T06:31:07.986Z,99498.88
2023-01-17T06:33:36.311Z,99500.91
2023-01-17T06:36:04.825Z,99509.53
2023-01-17T06:38:33.019Z,99504.81
2023-01-17T06:41:05.836Z,99510.63
2023-01-17T06:43:35.525Z,99508.59
2023-01-17T06:46:03.736Z,99522.25
2023-01-17T06:48:31.867Z,99521.94
2023-01-17T06:51:00.014Z,99530.44
2023-01-17T06:53:28.138Z,99529.97
2023-01-17T06:55:57.649Z,99529.03
2023-01-17T06:58:25.930Z,99536.25
2023-01-17T07:00:55.501Z,99555.88
2023-01-17T07:03:25.545Z,99548.03
2023-01-17T07:05:54.333Z,99545.06
2023-01-17T07:08:22.502Z,99542.72
2023-01-17T07:10:50.787Z,99556.97
2023-01-17T07:13:18.913Z,99549.31
2023-01-17T07:15:47.023Z,99549.97
2023-01-17T07:18:20.672Z,99550.09
2023-01-17T07:20:49.141Z,99564.28
2023-01-17T07:23:19.897Z,99568.81
2023-01-17T07:25:52.883Z,99563.47
2023-01-17T07:28:21.056Z,99561.75
2023-01-17T07:30:49.619Z,99555.47
2023-01-17T07:33:19.285Z,99548.53
2023-01-17T07:35:48.437Z,99546.19
2023-01-17T07:38:17.913Z,99549.34
2023-01-17T07:40:46.636Z,99557.50
2023-01-17T07:43:14.995Z,99554.66
2023-01-17T07:45:44.317Z,99566.44
2023-01-17T07:48:13.639Z,99547.44
2023-01-17T07:50:43.499Z,99545.38
2023-01-17T07:53:12.309Z,99538.94
2023-01-17T07:55:40.367Z,99561.28
2023-01-17T07:58:08.499Z,99546.97
2023-01-17T08:00:36.974Z,99548.09
2023-01-17T08:03:05.885Z,99565.97
2023-01-17T08:05:34.056Z,99545.69
2023-01-17T08:08:03.651Z,99538.59
2023-01-17T08:10:31.817Z,99533.88
2023-01-17T08:13:00.059Z,99528.84
2023-01-17T08:15:28.162Z,99530.72
2023-01-17T08:17:57.741Z,99526.13
2023-01-17T08:20:27.956Z,99525.16
2023-01-17T08:22:56.818Z,99525.69
2023-01-17T08:25:27.290Z,99527.88
2023-01-17T08:27:58.863Z,99527.53
2023-01-17T08:30:27.740Z,99526.09
2023-01-17T08:32:56.517Z,99527.94
2023-01-17T08:35:24.903Z,99519.13
2023-01-17T08:37:55.669Z,99517.66
2023-01-17T08:40:24.151Z,99510.63
2023-01-17T08:42:56.988Z,99510.69
2023-01-17T08:45:25.916Z,99497.97
2023-01-17T08:47:54.202Z,99504.28
2023-01-17T08:50:22.423Z,99500.41
2023-01-17T08:52:51.538Z,99492.38
2023-01-17T08:55:19.905Z,99497.41
2023-01-17T08:57:48.006Z,99512.59
2023-01-17T09:00:19.062Z,99520.25
2023-01-17T09:02:47.158Z,99518.00
2023-01-17T09:05:15.455Z,99520.94
2023-01-17T09:07:43.551Z,99511.47
2023-01-17T09:10:12.637Z,99494.81
2023-01-17T09:12:40.985Z,99488.84
2023-01-17T09:15:09.740Z,99483.56
2023-01-17T09:17:39.241Z,99479.66
2023-01-17T09:20:08.830Z,99477.38
2023-01-17T09:22:37.847Z,99473.28
2023-01-17T09:25:06.645Z,99460.53
2023-01-17T09:27:34.945Z,99463.16
2023-01-17T09:30:03.093Z,99447.22
2023-01-17T09:32:31.164Z,99445.97
2023-01-17T09:35:01.043Z,99433.50
2023-01-17T09:37:30.081Z,99438.97
2023-01-17T09:39:58.198Z,99440.81
2023-01-17T09:42:34.737Z,99431.53
2023-01-17T09:45:02.902Z,99444.66
2023-01-17T09:47:42.050Z,99443.22
2023-01-17T09:50:25.323Z,99436.63
2023-01-17T09:53:00.829Z,99438.53
2023-01-17T09:55:35.583Z,99441.84
2023-01-17T09:58:08.254Z,99447.97
2023-01-17T10:00:48.109Z,99458.03
2023-01-17T10:03:43.157Z,99461.03
2023-01-17T10:06:30.102Z,99443.31
2023-01-17T10:09:10.402Z,99451.28
2023-01-17T10:11:50.300Z,99444.13
2023-01-17T10:14:41.795Z,99442.84
2023-01-17T10:17:18.074Z,99429.91
2023-01-17T10:20:00.435Z,99429.47
2023-01-17T10:22:52.464Z,99434.84
2023-01-17T10:25:34.169Z,99438.75
2023-01-17T10:28:11.607Z,99441.88
2023-01-17T10:30:46.356Z,99430.16
2023-01-17T10:33:17.693Z,99409.34
2023-01-17T10:35:57.057Z,99389.94
2023-01-17T10:38:32.150Z,99394.47
2023-01-17T10:41:04.011Z,99387.66
2023-01-17T10:43:47.579Z,99408.28
2023-01-17T10:46:20.232Z,99414.63
2023-01-17T10:48:51.919Z,99420.66
2023-01-17T10:51:51.665Z,99403.47
2023-01-17T10:54:31.194Z,99402.03
2023-01-17T10:56:59.896Z,99383.94
2023-01-17T10:59:32.002Z,99393.63
2023-01-17T11:02:01.012Z,99401.97
2023-01-17T11:04:36.000Z,99403.31
2023-01-17T11:07:18.262Z,99394.16
2023-01-17T11:09:50.400Z,99398.75
2023-01-17T11:12:25.943Z,99390.06
2023-01-17T11:15:04.340Z,99384.03
2023-01-17T11:17:33.988Z,99388.59
2023-01-17T11:20:21.261Z,99379.44
2023-01-17T11:23:05.882Z,99384.22
2023-01-17T11:25:36.328Z,99392.25
2023-01-17T11:28:08.360Z,99387.41
2023-01-17T11:30:36.675Z,99385.19
2023-01-17T11:33:08.900Z,99384.47
2023-01-17T11:35:38.942Z,99387.81
2023-01-17T11:38:16.901Z,99378.41
2023-01-17T11:40:47.493Z,99374.19
2023-01-17T11:43:22.975Z,99375.41
2023-01-17T11:46:06.771Z,99362.44
2023-01-17T11:48:39.817Z,99357.31
2023-01-17T11:51:20.286Z,99365.25
2023-01-17T11:53:49.385Z,99375.75
2023-01-17T11:56:30.108Z,99377.31
2023-01-17T11:59:31.703Z,99370.63
2023-01-17T12:02:33.166Z,99365.91
2023-01-17T12:05:15.470Z,99370.25
2023-01-17T12:07:55.162Z,99366.31
2023-01-17T12:10:30.202Z,99362.22
2023-01-17T12:13:33.988Z,99377.63
2023-01-17T12:16:28.845Z,99368.50
2023-01-17T12:19:07.182Z,99366.81
2023-01-17T12:21:47.951Z,99360.31
2023-01-17T12:24:58.486Z,99365.00
2023-01-17T12:27:35.043Z,99367.34
2023-01-17T12:30:24.815Z,99370.69
2023-01-17T12:33:08.205Z,99360.09
2023-01-17T12:35:43.786Z,99358.94
2023-01-17T12:38:31.281Z,99361.78
2023-01-17T12:41:06.990Z,99354.13
2023-01-17T12:43:40.831Z,99358.16
2023-01-17T12:46:20.969Z,99359.81
2023-01-17T12:48:53.838Z,99349.19
2023-01-17T12:51:29.517Z,99340.91
2023-01-17T12:54:03.238Z,99334.03
2023-01-17T12:56:36.270Z,99328.31
2023-01-17T12:59:16.974Z,99330.28
2023-01-17T13:01:57.791Z,99337.72
2023-01-17T13:04:30.700Z,99353.03
2023-01-17T13:07:07.818Z,99348.69
2023-01-17T13:09:42.428Z,99351.94
2023-01-17T13:12:15.423Z,99365.31
2023-01-17T13:14:43.646Z,99356.69
2023-01-17T13:17:32.787Z,99350.75
2023-01-17T13:20:09.968Z,99350.19
2023-01-17T13:22:40.681Z,99355.66
2023-01-17T13:25:27.545Z,99349.63
2023-01-17T13:28:13.819Z,99366.09
2023-01-17T13:31:15.578Z,99365.50
2023-01-17T13:34:03.661Z,99363.50
2023-01-17T13:36:45.823Z,99371.34
2023-01-17T13:39:36.186Z,99365.19
2023-01-17T13:42:13.576Z,99367.22
2023-01-17T13:44:42.029Z,99368.34
2023-01-17T13:47:40.523Z,99372.72
2023-01-17T13:50:41.074Z,99357.59
2023-01-17T13:53:57.946Z,99362.09
2023-01-17T13:56:42.515Z,99369.44
2023-01-17T13:59:34.450Z,99366.31
2023-01-17T14:02:02.917Z,99363.78
2023-01-17T14:05:07.825Z,99354.09
2023-01-17T14:07:39.337Z,99364.81
2023-01-17T14:10:31.734Z,99360.72
2023-01-17T14:13:01.937Z,99367.50
2023-01-17T14:15:33.214Z,99360.56
2023-01-17T14:18:03.671Z,99370.78
2023-01-17T14:21:07.449Z,99378.78
2023-01-17T14:23:50.438Z,99373.06
2023-01-17T14:26:28.743Z,99388.25
2023-01-17T14:29:01.338Z,99387.91
2023-01-17T14:31:31.170Z,99395.09
2023-01-17T14:34:14.013Z,99401.53
2023-01-17T14:36:42.894Z,99407.72
2023-01-17T14:39:22.614Z,99414.47
2023-01-17T14:41:51.391Z,99412.34
2023-01-17T14:44:21.832Z,99412.19
2023-01-17T14:46:50.714Z,99423.16
2023-01-17T14:49:24.540Z,99409.84
2023-01-17T14:52:04.224Z,99394.31
2023-01-17T14:54:33.162Z,99413.41
2023-01-17T14:57:16.827Z,99410.72
2023-01-17T14:59:46.798Z,99411.81
2023-01-17T15:02:19.831Z,99408.56
2023-01-17T15:04:57.389Z,99406.00
2023-01-17T15:07:27.621Z,99404.50
2023-01-17T15:09:55.916Z,99403.19
2023-01-17T15:12:24.803Z,99417.75
2023-01-17T15:14:58.671Z,99419.91
2023-01-17T15:17:26.970Z,99417.22
2023-01-17T15:19:59.275Z,99428.41
2023-01-17T15:22:29.983Z,99439.38
2023-01-17T15:24:59.695Z,99438.69
2023-01-17T15:27:29.052Z,99442.91
2023-01-17T15:30:02.304Z,99440.31
2023-01-17T15:32:31.500Z,99438.97
2023-01-17T15:35:02.809Z,99445.00
2023-01-17T15:37:32.780Z,99442.25
2023-01-17T15:40:07.273Z,99444.06
2023-01-17T15:42:39.707Z,99454.22
2023-01-17T15:45:16.174Z,99440.13
2023-01-17T15:47:44.361Z,99447.03
2023-01-17T15:50:37.833Z,99453.59
2023-01-17T15:53:14.044Z,99457.88
2023-01-17T15:55:42.266Z,99446.97
2023-01-17T15:58:24.829Z,99446.28
2023-01-17T16:00:54.782Z,99452.97
2023-01-17T16:03:25.547Z,99445.59
2023-01-17T16:05:56.913Z,99451.59
2023-01-17T16:08:28.281Z,99450.47
2023-01-17T16:10:59.257Z,99449.91
2023-01-17T16:13:27.467Z,99454.19
2023-01-17T16:16:10.830Z,99454.38
2023-01-17T16:18:40.491Z,99456.28
2023-01-17T16:21:24.285Z,99451.59
2023-01-17T16:23:53.455Z,99466.09
2023-01-17T16:26:22.087Z,99458.66
2023-01-17T16:28:50.960Z,99459.38
2023-01-17T16:31:20.595Z,99447.94
2023-01-17T16:33:50.873Z,99455.81
2023-01-17T16:36:20.933Z,99450.56
2023-01-17T16:38:51.891Z,99448.44
2023-01-17T16:41:20.615Z,99454.13
2023-01-17T16:43:59.181Z,99442.56
2023-01-17T16:46:29.708Z,99447.72
2023-01-17T16:48:59.857Z,99443.03
2023-01-17T16:51:28.022Z,99440.06
2023-01-17T16:53:56.134Z,99452.69
2023-01-17T16:56:24.309Z,99445.84
2023-01-17T16:58:53.482Z,99455.81
2023-01-17T17:01:22.930Z,99459.34
2023-01-17T17:03:52.739Z,99460.19
2023-01-17T17:06:21.330Z,99475.31
2023-01-17T17:08:49.494Z,99465.91
2023-01-17T17:11:19.790Z,99467.97
2023-01-17T17:13:50.269Z,99465.63
2023-01-17T17:16:20.947Z,99467.63
2023-01-17T17:18:58.430Z,99456.00
2023-01-17T17:21:27.409Z,99456.97
2023-01-17T17:23:58.216Z,99449.28
2023-01-17T17:26:29.047Z,99462.53
2023-01-17T17:28:57.242Z,99455.91
2023-01-17T17:31:25.575Z,99457.66
2023-01-17T17:34:00.999Z,99454.97
2023-01-17T17:36:29.558Z,99456.56
2023-01-17T17:38:58.770Z,99454.66
2023-01-17T17:41:28.501Z,99456.59
2023-01-17T17:43:57.446Z,99460.88
2023-01-17T17:46:27.310Z,99468.91
2023-01-17T17:48:56.056Z,99473.81
2023-01-17T17:51:27.712Z,99473.66
2023-01-17T17:53:57.067Z,99474.47
2023-01-17T17:56:25.503Z,99477.78
2023-01-17T17:58:53.931Z,99481.25
2023-01-17T18:01:24.325Z,99481.41
2023-01-17T18:03:53.888Z,99477.63
2023-01-17T18:06:22.505Z,99485.34
2023-01-17T18:08:53.477Z,99481.72
2023-01-17T18:11:23.710Z,99475.72
2023-01-17T18:13:53.214Z,99483.41
2023-01-17T18:16:23.771Z,99477.91
2023-01-17T18:18:54.617Z,99489.41
2023-01-17T18:21:25.755Z,99492.72
2023-01-17T18:23:59.032Z,99490.34
2023-01-17T18:26:30.470Z,99496.94
2023-01-17T18:29:00.334Z,99487.81
2023-01-17T18:31:31.596Z,99497.88
2023-01-17T18:34:07.866Z,99494.88
2023-01-17T18:36:36.219Z,99489.22
2023-01-17T18:39:11.550Z,99501.81
2023-01-17T18:41:40.184Z,99501.50
2023-01-17T18:44:09.448Z,99494.72
2023-01-17T18:46:38.939Z,99495.38
2023-01-17T18:49:07.813Z,99496.94
2023-01-17T18:51:36.332Z,99496.78
2023-01-17T18:54:09.034Z,99500.22
2023-01-17T18:56:37.524Z,99490.94
2023-01-17T18:59:07.419Z,99494.31
2023-01-17T19:01:37.852Z,99495.84
2023-01-17T19:04:07.165Z,99485.47
2023-01-17T19:06:37.402Z,99473.06
2023-01-17T19:09:08.280Z,99505.47
2023-01-17T19:11:37.719Z,99476.69
2023-01-17T19:14:07.530Z,99477.31
2023-01-17T19:16:39.572Z,99473.53
2023-01-17T19:19:09.992Z,99464.72
2023-01-17T19:21:38.383Z,99472.94
2023-01-17T19:24:08.877Z,99456.13
2023-01-17T19:26:38.690Z,99470.88
2023-01-17T19:29:07.016Z,99473.06
2023-01-17T19:31:43.179Z,99479.06
2023-01-17T19:34:14.055Z,99479.22
2023-01-17T19:36:43.089Z,99476.78
2023-01-17T19:39:12.958Z,99482.09
2023-01-17T19:41:44.827Z,99464.78
2023-01-17T19:44:15.460Z,99465.34
2023-01-17T19:46:46.165Z,99467.25
2023-01-17T19:49:16.501Z,99468.19
2023-01-17T19:51:45.709Z,99466.63
2023-01-17T19:54:21.746Z,99472.16
2023-01-17T19:56:50.518Z,99476.69
2023-01-17T19:59:20.195Z,99463.84
2023-01-17T20:01:49.242Z,99477.56
2023-01-17T20:04:18.894Z,99476.00
2023-01-17T20:06:47.682Z,99474.13
2023-01-17T20:09:17.551Z,99465.09
2023-01-17T20:11:47.287Z,99451.88
2023-01-17T20:14:16.954Z,99457.03
2023-01-17T20:16:47.622Z,99451.75
2023-01-17T20:19:16.486Z,99444.41
2023-01-17T20:21:45.557Z,99445.88
2023-01-17T20:24:14.430Z,99449.03
2023-01-17T20:26:45.054Z,99444.50
2023-01-17T20:29:15.913Z,99444.19
2023-01-17T20:31:46.235Z,99450.38
2023-01-17T20:34:18.889Z,99454.53
2023-01-17T20:36:47.788Z,99451.56
2023-01-17T20:39:17.577Z,99446.09
2023-01-17T20:41:49.355Z,99464.06
2023-01-17T20:44:18.747Z,99449.44
2023-01-17T20:46:49.140Z,99456.50
2023-01-17T20:49:19.439Z,99449.59
2023-01-17T20:51:48.855Z,99446.59
2023-01-17T20:54:19.376Z,99455.09
2023-01-17T20:56:50.219Z,99460.13
2023-01-17T20:59:20.350Z,99455.84
2023-01-17T21:01:48.901Z,99448.13
2023-01-17T21:04:20.343Z,99454.75
2023-01-17T21:06:52.247Z,99450.38
2023-01-17T21:09:21.648Z,99446.94
2023-01-17T21:11:51.964Z,99451.66
2023-01-17T21:14:22.385Z,99449.47
2023-01-17T21:16:51.972Z,99448.81
2023-01-17T21:19:20.654Z,99422.38
2023-01-17T21:21:50.244Z,99431.97
2023-01-17T21:24:20.250Z,99437.94
2023-01-17T21:26:51.635Z,99444.81
2023-01-17T21:29:23.795Z,99448.28
2023-01-17T21:31:53.171Z,99445.91
2023-01-17T21:34:24.577Z,99452.22
2023-01-17T21:36:55.264Z,99442.34
2023-01-17T21:39:25.657Z,99440.66
2023-01-17T21:41:54.631Z,99432.13
2023-01-17T21:44:26.188Z,99443.31
2023-01-17T21:46:56.452Z,99427.91
2023-01-17T21:49:25.498Z,99447.59
2023-01-17T21:52:11.107Z,99443.66
2023-01-17T21:54:57.197Z,99446.66
2023-01-17T21:57:43.526Z,99442.72
2023-01-17T22:00:15.687Z,99440.84
2023-01-17T22:02:44.739Z,99435.19
2023-01-17T22:05:14.119Z,99429.22
2023-01-17T22:08:02.797Z,99430.81
2023-01-17T22:10:31.409Z,99423.09
2023-01-17T22:13:00.072Z,99415.53
2023-01-17T22:15:29.888Z,99409.34
2023-01-17T22:17:58.693Z,99408.06
2023-01-17T22:20:30.705Z,99406.91
2023-01-17T22:22:59.318Z,99408.94
2023-01-17T22:25:27.862Z,99410.16
2023-01-17T22:27:56.575Z,99403.06
2023-01-17T22:30:25.007Z,99393.31
2023-01-17T22:32:56.936Z,99403.69
2023-01-17T22:35:26.500Z,99406.97
2023-01-17T22:37:55.219Z,99406.38
2023-01-17T22:40:24.164Z,99404.97
2023-01-17T22:42:52.648Z,99397.09
2023-01-17T22:45:21.113Z,99396.84
2023-01-17T22:47:49.747Z,99392.91
2023-01-17T22:50:20.485Z,99377.09
2023-01-17T22:52:48.935Z,99373.81
2023-01-17T22:55:18.358Z,99376.66
2023-01-17T22:57:47.735Z,99376.94
2023-01-17T23:00:16.910Z,99377.56
2023-01-17T23:02:45.286Z,99374.03
2023-01-17T23:05:13.531Z,99377.03
2023-01-17T23:07:46.697Z,99376.56
2023-01-17T23:10:37.263Z,99386.72
2023-01-17T23:13:06.028Z,99383.47
2023-01-17T23:15:56.315Z,99381.06
2023-01-17T23:18:41.746Z,99379.28
2023-01-17T23:21:09.830Z,99365.94
2023-01-17T23:23:39.298Z,99359.25
2023-01-17T23:26:07.360Z,99356.16
2023-01-17T23:28:34.586Z,99364.50
2023-01-17T23:31:05.099Z,99364.03
2023-01-17T23:33:33.249Z,99364.50
2023-01-17T23:36:01.638Z,99359.16
2023-01-17T23:38:30.250Z,99365.28
2023-01-17T23:41:21.601Z,99351.13
2023-01-17T23:43:53.571Z,99350.19
2023-01-17T23:46:22.375Z,99380.66
2023-01-17T23:48:50.582Z,99367.72
2023-01-17T23:51:18.905Z,99380.72
2023-01-17T23:53:47.153Z,99376.69
2023-01-17T23:56:20.076Z,99378.16
2023-01-17T23:58:48.450Z,99368.00
